Time;durP1;ratioP1;P1;durP2;ratioP2;P2;SDS_P1;SDS_P2;PMS_P1;PMS_P2;Temp;Humidity;BMP_temperature;BMP_pressure;BME280_temperature;BME280_humidity;BME280_pressure;Samples;Min_cycle;Max_cycle;Signal;HPM_P1;HPM_P2
2022/03/24 00:00:04;;;;;;;;;;;7.90;1.00;;;;;;5036481;28;19917;-71
2022/03/24 00:02:30;;;;;;;;;;;;;;;;;;5055759;28;19952;-71
2022/03/24 00:04:55;;;;;;;;;;;8.10;1.00;;;;;;5037748;28;19948;-71
2022/03/24 00:07:21;;;;;;;;;;;8.00;1.00;;;;;;5056066;28;19915;-71
2022/03/24 00:09:46;;;;;;;;;;;7.90;1.00;;;;;;5055137;28;20007;-72
2022/03/24 00:12:12;;;;;;;;;;;7.90;1.00;;;;;;5056039;28;20354;-72
2022/03/24 00:14:38;;;;;;;;;;;7.90;1.00;;;;;;5055028;28;20357;-72
2022/03/24 00:17:04;;;;;;;;;;;7.90;1.00;;;;;;5056049;28;19959;-72
2022/03/24 00:19:30;;;;;;;;;;;;;;;;;;5055731;28;19915;-73
2022/03/24 00:21:57;;;;;;;;;;;7.90;1.00;;;;;;5055193;28;19999;-72
2022/03/24 00:24:23;;;;;;;;;;;8.10;1.00;;;;;;5055914;28;19934;-72
2022/03/24 00:26:48;;;;;;;;;;;7.70;1.00;;;;;;5054866;28;19991;-72
2022/03/24 00:29:14;;;;;;;;;;;7.80;1.00;;;;;;5055741;28;19912;-72
2022/03/24 00:31:39;;;;;;;;;;;7.80;1.00;;;;;;5054863;28;20365;-72
2022/03/24 00:34:05;;;;;;;;;;;7.70;1.00;;;;;;5055344;28;20281;-72
2022/03/24 00:36:31;;;;;;;;;;;;;;;;;;5055491;28;19913;-73
2022/03/24 00:38:57;;;;;;;;;;;7.50;1.00;;;;;;5054832;28;19909;-72
2022/03/24 00:41:22;;;;;;;;;;;7.50;1.00;;;;;;5055345;28;19955;-72
2022/03/24 00:43:48;;;;;;;;;;;7.50;1.00;;;;;;5054505;28;19999;-72
2022/03/24 00:46:21;;;;;;;;;;;7.10;1.00;;;;;;5055271;28;20282;-72
2022/03/24 00:48:46;;;;;;;;;;;7.50;1.00;;;;;;5054342;28;19909;-71
2022/03/24 00:51:12;;;;;;;;;;;7.50;1.00;;;;;;5055196;28;19936;-71
2022/03/24 00:53:37;;;;;;;;;;;7.30;1.00;;;;;;5054312;28;20440;-72
2022/03/24 00:56:03;;;;;;;;;;;7.00;1.00;;;;;;5055120;28;19909;-71
2022/03/24 00:58:29;;;;;;;;;;;6.90;1.00;;;;;;5055083;28;19909;-71
2022/03/24 01:00:55;;;;;;;;;;;6.90;1.00;;;;;;5049626;28;20480;-71
2022/03/24 01:03:21;;;;;;;;;;;7.10;1.00;;;;;;5034432;28;19950;-71
2022/03/24 01:05:47;;;;;;;;;;;7.10;1.00;;;;;;5034175;28;19913;-71
2022/03/24 01:08:16;;;;;;;;;;;7.00;1.00;;;;;;5034951;28;19909;-71
2022/03/24 01:10:42;;;;;;;;;;;6.90;1.00;;;;;;5034141;28;19909;-71
2022/03/24 01:13:08;;;;;;;;;;;7.20;1.00;;;;;;5034889;28;20414;-71
2022/03/24 01:15:34;;;;;;;;;;;;;;;;;;5034676;28;20486;-72
2022/03/24 01:18:00;;;;;;;;;;;7.30;1.00;;;;;;5034387;28;19917;-71
2022/03/24 01:20:27;;;;;;;;;;;7.00;1.00;;;;;;5034963;28;19913;-71
2022/03/24 01:22:52;;;;;;;;;;;7.00;1.00;;;;;;5033821;28;19909;-72
2022/03/24 01:25:17;;;;;;;;;;;7.20;1.00;;;;;;5034594;28;19910;-71
2022/03/24 01:27:44;;;;;;;;;;;7.00;1.00;;;;;;5033837;28;19909;-72
2022/03/24 01:30:10;;;;;;;;;;;7.10;1.00;;;;;;5034583;28;19909;-72
2022/03/24 01:32:36;;;;;;;;;;;;;;;;;;5050837;28;20373;-72
2022/03/24 01:35:03;;;;;;;;;;;7.00;1.00;;;;;;5054109;28;19917;-72
2022/03/24 01:37:28;;;;;;;;;;;7.10;1.00;;;;;;5054616;28;19991;-72
2022/03/24 01:39:54;;;;;;;;;;;6.90;1.00;;;;;;5052678;28;20092;-72
2022/03/24 01:42:20;;;;;;;;;;;6.90;1.00;;;;;;5054170;28;20349;-72
2022/03/24 01:44:46;;;;;;;;;;;6.90;1.00;;;;;;5053282;28;19916;-72
2022/03/24 01:47:12;;;;;;;;;;;7.00;1.00;;;;;;5054398;28;19909;-72
2022/03/24 01:49:38;;;;;;;;;;;;;;;;;;5053660;28;20242;-72
2022/03/24 01:52:07;;;;;;;;;;;6.40;1.00;;;;;;5053893;28;20378;-72
2022/03/24 01:54:35;;;;;;;;;;;6.70;1.00;;;;;;5036176;28;19920;-72
2022/03/24 01:57:01;;;;;;;;;;;6.70;1.00;;;;;;5035501;28;20315;-71
2022/03/24 01:59:27;;;;;;;;;;;6.80;1.00;;;;;;5036386;28;20380;-72
2022/03/24 02:01:53;;;;;;;;;;;6.80;1.00;;;;;;5052993;28;19959;-71
2022/03/24 02:04:21;;;;;;;;;;;6.80;1.00;;;;;;5054203;28;19913;-72
2022/03/24 02:06:48;;;;;;;;;;;6.80;1.00;;;;;;5053077;28;19920;-72
2022/03/24 02:09:13;;;;;;;;;;;6.70;1.00;;;;;;5053936;28;19908;-72
2022/03/24 02:11:39;;;;;;;;;;;;;;;;;;5053183;28;19909;-73
2022/03/24 02:14:05;;;;;;;;;;;6.60;1.00;;;;;;5052468;28;19924;-72
2022/03/24 02:16:34;;;;;;;;;;;6.30;1.00;;;;;;5053615;28;20301;-72
2022/03/24 02:19:29;;;;;;;;;;;6.60;1.00;;;;;;5052754;28;19905;-72
2022/03/24 02:21:55;;;;;;;;;;;6.40;1.00;;;;;;5031394;28;20365;-71
2022/03/24 02:24:22;;;;;;;;;;;6.60;1.00;;;;;;5053439;28;19913;-72
2022/03/24 02:26:48;;;;;;;;;;;6.50;1.00;;;;;;5034766;28;20323;-72
2022/03/24 02:29:14;;;;;;;;;;;6.50;1.00;;;;;;5053351;28;19908;-72
2022/03/24 02:31:40;;;;;;;;;;;;;;;;;;5052629;28;19920;-72
2022/03/24 02:36:51;;;;;;;;;;;6.60;1.00;;;;;;5052462;28;20337;-71
2022/03/24 02:39:17;;;;;;;;;;;7.00;1.00;;;;;;5053129;28;20003;-71
2022/03/24 02:41:51;;;;;;;;;;;7.00;1.00;;;;;;5052391;28;19909;-72
2022/03/24 02:44:17;;;;;;;;;;;6.90;1.00;;;;;;5053049;28;19916;-71
2022/03/24 02:46:44;;;;;;;;;;;6.40;1.00;;;;;;5052274;28;19924;-72
2022/03/24 02:49:10;;;;;;;;;;;6.40;1.00;;;;;;5052981;28;19909;-72
2022/03/24 02:51:36;;;;;;;;;;;6.40;1.00;;;;;;5052972;28;19916;-71
2022/03/24 02:54:03;;;;;;;;;;;6.40;1.00;;;;;;5052285;28;19951;-71
2022/03/24 02:56:29;;;;;;;;;;;6.30;1.00;;;;;;5052803;28;20004;-71
2022/03/24 02:58:55;;;;;;;;;;;6.20;1.00;;;;;;5017729;28;19960;-72
2022/03/24 03:01:21;;;;;;;;;;;;;;;;;;5052933;28;20474;-71
2022/03/24 03:03:46;;;;;;;;;;;6.20;1.00;;;;;;5052241;28;20321;-71
2022/03/24 03:06:13;;;;;;;;;;;6.10;1.00;;;;;;5052814;28;19998;-72
2022/03/24 03:08:39;;;;;;;;;;;;;;;;;;5052638;28;20330;-72
2022/03/24 03:11:05;;;;;;;;;;;6.30;1.00;;;;;;5051901;28;19916;-72
2022/03/24 03:13:31;;;;;;;;;;;6.40;1.00;;;;;;5052763;28;19909;-72
2022/03/24 03:15:57;;;;;;;;;;;6.10;1.00;;;;;;5033918;28;20242;-72
2022/03/24 03:18:22;;;;;;;;;;;5.80;1.00;;;;;;5052415;28;19909;-72
2022/03/24 03:20:48;;;;;;;;;;;5.90;1.00;;;;;;5051704;28;19958;-72
2022/03/24 03:23:14;;;;;;;;;;;6.20;1.00;;;;;;5052473;28;20396;-71
2022/03/24 03:25:39;;;;;;;;;;;6.10;1.00;;;;;;5052051;28;19913;-72
2022/03/24 03:28:07;;;;;;;;;;;6.00;1.00;;;;;;5051604;28;20015;-71
2022/03/24 03:30:32;;;;;;;;;;;6.20;1.00;;;;;;5052362;28;19909;-71
2022/03/24 03:32:58;;;;;;;;;;;6.30;1.00;;;;;;5051214;28;19945;-71
2022/03/24 06:29:01;;;;;;;;;;;6.80;1.00;;;;;;5129814;27;19947;-69
2022/03/24 06:31:27;;;;;;;;;;;6.60;1.00;;;;;;5130814;28;19943;-70
2022/03/24 06:33:53;;;;;;;;;;;;;;;;;;5111885;28;19908;-73
2022/03/24 06:36:19;;;;;;;;;;;7.20;1.00;;;;;;5130218;28;19912;-68
2022/03/24 06:38:45;;;;;;;;;;;7.30;1.00;;;;;;5121287;28;19912;-68
2022/03/24 06:41:10;;;;;;;;;;;7.30;1.00;;;;;;5096904;28;20336;-70
2022/03/24 06:43:36;;;;;;;;;;;7.40;1.00;;;;;;5129090;28;19998;-69
2022/03/24 06:46:03;;;;;;;;;;;7.20;1.00;;;;;;5129704;28;19918;-70
2022/03/24 06:48:28;;;;;;;;;;;6.90;1.00;;;;;;5130478;28;19912;-68
2022/03/24 06:50:54;;;;;;;;;;;;;;;;;;5130171;28;19952;-69
2022/03/24 06:53:20;;;;;;;;;;;7.30;1.00;;;;;;5129894;28;19962;-69
2022/03/24 06:55:45;;;;;;;;;;;7.20;1.00;;;;;;5130349;28;19950;-69
2022/03/24 06:58:11;;;;;;;;;;;6.80;1.00;;;;;;5127940;28;20608;-69
2022/03/24 07:00:39;;;;;;;;;;;6.40;1.00;;;;;;5128835;28;19968;-70
2022/03/24 07:03:05;;;;;;;;;;;8.00;5.00;;;;;;5127934;28;19923;-62
2022/03/24 07:05:31;;;;;;;;;;;;;;;;;;5110460;28;20283;-62
2022/03/24 07:07:57;;;;;;;;;;;;;;;;;;5128083;28;20391;-62
2022/03/24 07:10:23;;;;;;;;;;;10.30;1.00;;;;;;5127836;28;19923;-62
2022/03/24 07:12:49;;;;;;;;;;;10.50;1.00;;;;;;5129418;28;19912;-62
2022/03/24 07:15:15;;;;;;;;;;;10.70;1.00;;;;;;5110675;28;19950;-62
2022/03/24 07:17:41;;;;;;;;;;;10.90;1.00;;;;;;5130209;28;19951;-62
2022/03/24 07:20:07;;;;;;;;;;;10.80;1.00;;;;;;5129325;28;19957;-62
2022/03/24 07:22:34;;;;;;;;;;;10.90;1.00;;;;;;5129998;28;19914;-62
2022/03/24 07:25:00;;;;;;;;;;;;;;;;;;5129153;28;19908;-63
2022/03/24 07:27:26;;;;;;;;;;;11.20;1.00;;;;;;5129300;28;20416;-62
2022/03/24 07:29:52;;;;;;;;;;;11.20;1.00;;;;;;5129608;28;19954;-62
2022/03/24 07:32:18;;;;;;;;;;;10.80;1.00;;;;;;5128980;28;20040;-62
2022/03/24 07:34:44;;;;;;;;;;;10.70;1.00;;;;;;5129570;28;19915;-62
2022/03/24 07:37:09;;;;;;;;;;;11.30;1.00;;;;;;5128759;28;19908;-62
2022/03/24 07:39:35;;;;;;;;;;;11.00;1.00;;;;;;5118290;28;20308;-62
2022/03/24 07:42:01;;;;;;;;;;;10.90;1.00;;;;;;5114912;28;20275;-63
2022/03/24 07:44:26;;;;;;;;;;;10.70;1.00;;;;;;5115679;28;19907;-62
2022/03/24 07:46:52;;;;;;;;;;;10.60;1.00;;;;;;5115446;28;19916;-62
2022/03/24 07:49:17;;;;;;;;;;;10.70;1.00;;;;;;5114764;28;19904;-62
2022/03/24 07:51:43;;;;;;;;;;;10.90;1.00;;;;;;5115792;28;19907;-62
2022/03/24 07:54:10;;;;;;;;;;;10.50;1.00;;;;;;5114876;28;19951;-62
2022/03/24 07:56:36;;;;;;;;;;;10.40;1.00;;;;;;5115487;28;20324;-62
2022/03/24 07:59:04;;;;;;;;;;;10.40;1.00;;;;;;5114849;28;20333;-62
2022/03/24 08:01:42;;;;;;;;;;;10.40;1.00;;;;;;5115307;28;19908;-63
2022/03/24 08:04:08;;;;;;;;;;;10.40;1.00;;;;;;5114529;28;19984;-62
2022/03/24 08:06:35;;;;;;;;;;;10.50;1.00;;;;;;5115192;28;20336;-62
2022/03/24 08:09:01;;;;;;;;;;;;;;;;;;5114657;28;20002;-63
2022/03/24 08:11:26;;;;;;;;;;;10.60;1.00;;;;;;5096822;28;19962;-63
2022/03/24 08:13:54;;;;;;;;;;;10.90;1.00;;;;;;5096877;28;19918;-63
2022/03/24 08:16:20;;;;;;;;;;;11.00;1.00;;;;;;5114228;28;19903;-63
2022/03/24 08:18:45;;;;;;;;;;;11.10;1.00;;;;;;5115039;28;19943;-63
2022/03/24 08:21:11;;;;;;;;;;;10.90;1.00;;;;;;5114227;28;20308;-63
2022/03/24 08:23:36;;;;;;;;;;;10.90;1.00;;;;;;5114913;28;20360;-61
2022/03/24 08:26:02;;;;;;;;;;;;;;;;;;5114340;28;20288;-63
2022/03/24 08:28:28;;;;;;;;;;;11.60;1.00;;;;;;5114491;28;19978;-62
2022/03/24 08:30:53;;;;;;;;;;;11.60;1.00;;;;;;5114711;28;19908;-62
2022/03/24 08:33:19;;;;;;;;;;;;;;;;;;5113946;28;19919;-62
2022/03/24 08:35:45;;;;;;;;;;;12.20;1.00;;;;;;5115074;28;19914;-63
2022/03/24 08:38:10;;;;;;;;;;;11.70;1.00;;;;;;5113951;28;19907;-62
2022/03/24 08:40:37;;;;;;;;;;;11.70;1.00;;;;;;5114797;28;19908;-63
2022/03/24 08:43:03;;;;;;;;;;;;;;;;;;5114619;28;19912;-64
2022/03/24 08:45:29;;;;;;;;;;;11.90;1.00;;;;;;5095983;28;20375;-62
2022/03/24 08:47:55;;;;;;;;;;;11.90;1.00;;;;;;5114394;28;19912;-62
2022/03/24 08:50:21;;;;;;;;;;;12.10;1.00;;;;;;5112649;28;19904;-62
2022/03/24 08:52:48;;;;;;;;;;;12.40;1.00;;;;;;5114315;28;19994;-63
2022/03/24 08:55:14;;;;;;;;;;;12.10;1.00;;;;;;5113745;28;19935;-63
2022/03/24 08:57:40;;;;;;;;;;;12.30;1.00;;;;;;5114520;28;19916;-63
2022/03/24 09:00:13;;;;;;;;;;;12.30;1.00;;;;;;5113467;28;19976;-63
2022/03/24 09:02:40;;;;;;;;;;;12.50;1.00;;;;;;5114393;28;19907;-62
2022/03/24 09:05:05;;;;;;;;;;;12.60;1.00;;;;;;5113253;28;20416;-63
2022/03/24 09:07:31;;;;;;;;;;;13.10;1.00;;;;;;5114215;28;19912;-62
2022/03/24 09:09:56;;;;;;;;;;;12.80;1.00;;;;;;5113990;28;19931;-62
2022/03/24 09:12:23;;;;;;;;;;;12.70;1.00;;;;;;5113115;28;20557;-62
2022/03/24 09:14:48;;;;;;;;;;;12.80;1.00;;;;;;5114115;28;19994;-62
2022/03/24 09:17:14;;;;;;;;;;;12.80;1.00;;;;;;5113058;28;20011;-63
2022/03/24 09:19:39;;;;;;;;;;;13.00;1.00;;;;;;5113786;28;19908;-63
2022/03/24 09:22:05;;;;;;;;;;;;;;;;;;5113197;28;19965;-65
2022/03/24 09:24:31;;;;;;;;;;;;;;;;;;5095395;28;19908;-62
2022/03/24 09:26:57;;;;;;;;;;;;;;;;;;5113273;28;19931;-62
2022/03/24 09:29:23;;;;;;;;;;;13.50;1.00;;;;;;5113120;28;19910;-63
2022/03/24 09:31:49;;;;;;;;;;;13.60;1.00;;;;;;5113619;28;19908;-63
2022/03/24 09:34:15;;;;;;;;;;;;;;;;;;5112798;28;19914;-63
2022/03/24 09:36:41;;;;;;;;;;;13.50;1.00;;;;;;5113469;28;19912;-63
2022/03/24 09:39:07;;;;;;;;;;;;;;;;;;5112834;28;20362;-64
2022/03/24 09:41:34;;;;;;;;;;;13.70;1.00;;;;;;5113426;28;20275;-63
2022/03/24 09:43:59;;;;;;;;;;;13.80;1.00;;;;;;5113478;28;19908;-63
2022/03/24 09:46:26;;;;;;;;;;;13.80;1.00;;;;;;5094240;28;19904;-63
2022/03/24 09:48:52;;;;;;;;;;;13.90;1.00;;;;;;5113396;28;20397;-63
2022/03/24 09:51:18;;;;;;;;;;;14.00;1.00;;;;;;5112513;28;19907;-63
2022/03/24 09:53:44;;;;;;;;;;;13.80;1.00;;;;;;5113235;28;19984;-63
2022/03/24 09:56:09;;;;;;;;;;;;;;;;;;5112280;28;19916;-64
2022/03/24 09:58:35;;;;;;;;;;;14.10;1.00;;;;;;5113131;28;19934;-63
2022/03/24 10:01:01;;;;;;;;;;;14.00;1.00;;;;;;5113006;28;19914;-62
2022/03/24 10:03:26;;;;;;;;;;;14.10;1.00;;;;;;5112349;28;20142;-63
2022/03/24 10:06:04;;;;;;;;;;;14.20;1.00;;;;;;5106388;27;20398;-62
2022/03/24 10:08:30;;;;;;;;;;;14.20;1.00;;;;;;5092001;28;19919;-63
2022/03/24 10:10:56;;;;;;;;;;;;;;;;;;5109895;28;19908;-63
2022/03/24 10:13:39;;;;;;;;;;;14.30;1.00;;;;;;5107522;28;19973;-63
2022/03/24 10:16:05;;;;;;;;;;;;;;;;;;5112815;28;19980;-63
2022/03/24 10:18:31;;;;;;;;;;;14.70;1.00;;;;;;5112351;28;19962;-63
2022/03/24 10:20:57;;;;;;;;;;;;;;;;;;5109662;28;19915;-64
2022/03/24 10:23:22;;;;;;;;;;;14.90;1.00;;;;;;5097647;28;19916;-63
2022/03/24 10:25:48;;;;;;;;;;;14.90;1.00;;;;;;5111274;28;19915;-63
2022/03/24 10:28:17;;;;;;;;;;;14.80;1.00;;;;;;5104668;28;20010;-64
2022/03/24 10:30:46;;;;;;;;;;;15.20;1.00;;;;;;5104683;28;20010;-63
2022/03/24 10:33:31;;;;;;;;;;;15.20;1.00;;;;;;5092411;28;20317;-68
2022/03/24 10:36:09;;;;;;;;;;;15.20;1.00;;;;;;5101186;28;20320;-66
2022/03/24 10:39:05;;;;;;;;;;;15.10;1.00;;;;;;5098988;28;19908;-66
2022/03/24 10:41:35;;;;;;;;;;;15.30;1.00;;;;;;5104202;28;19922;-66
2022/03/24 10:44:11;;;;;;;;;;;15.40;1.00;;;;;;5102894;28;19916;-65
2022/03/24 10:46:37;;;;;;;;;;;15.20;1.00;;;;;;5103831;28;19912;-66
2022/03/24 10:49:29;;;;;;;;;;;15.30;1.00;;;;;;5104415;28;19935;-67
2022/03/24 10:51:55;;;;;;;;;;;15.60;1.00;;;;;;5108730;28;19934;-65
2022/03/24 10:54:22;;;;;;;;;;;15.50;1.00;;;;;;5104805;28;20364;-65
2022/03/24 10:57:08;;;;;;;;;;;15.70;1.00;;;;;;5106003;28;19916;-65
2022/03/24 10:59:41;;;;;;;;;;;15.70;1.00;;;;;;5091736;28;19908;-65
2022/03/24 11:02:07;;;;;;;;;;;15.90;1.00;;;;;;5097505;28;19916;-65
2022/03/24 11:04:32;;;;;;;;;;;16.20;1.00;;;;;;5097542;28;19923;-65
2022/03/24 11:06:58;;;;;;;;;;;15.90;1.00;;;;;;5103364;28;19916;-65
2022/03/24 11:09:26;;;;;;;;;;;15.60;1.00;;;;;;5109977;28;19915;-65
2022/03/24 11:11:52;;;;;;;;;;;;;;;;;;5112617;28;20056;-65
2022/03/24 11:14:18;;;;;;;;;;;;;;;;;;5111930;28;19927;-66
2022/03/24 11:16:43;;;;;;;;;;;16.10;1.00;;;;;;5114823;28;20271;-63
2022/03/24 11:19:09;;;;;;;;;;;;;;;;;;5114680;28;19912;-65
2022/03/24 11:21:40;;;;;;;;;;;16.40;1.00;;;;;;5114366;28;20721;-66
2022/03/24 11:24:06;;;;;;;;;;;;;;;;;;5112475;28;19912;-65
2022/03/24 11:26:34;;;;;;;;;;;16.20;1.00;;;;;;5113643;28;20010;-65
2022/03/24 11:29:00;;;;;;;;;;;;;;;;;;5112261;28;19951;-66
2022/03/24 11:31:28;;;;;;;;;;;;;;;;;;5110395;28;20437;-65
2022/03/24 11:33:54;;;;;;;;;;;;;;;;;;5111310;28;19977;-65
2022/03/24 11:36:21;;;;;;;;;;;;;;;;;;5092112;28;20383;-65
2022/03/24 11:38:47;;;;;;;;;;;;;;;;;;5110831;28;19916;-74
2022/03/24 11:41:13;;;;;;;;;;;;;;;;;;5108085;28;19943;-74
2022/03/24 11:43:41;;;;;;;;;;;16.50;1.00;;;;;;5110636;28;19950;-74
2022/03/24 11:46:07;;;;;;;;;;;;;;;;;;5101363;28;19951;-73
2022/03/24 11:48:37;;;;;;;;;;;16.60;1.00;;;;;;5098300;28;20545;-74
2022/03/24 11:51:14;;;;;;;;;;;16.90;1.00;;;;;;5107138;28;19977;-74
2022/03/24 11:53:40;;;;;;;;;;;;;;;;;;5111732;28;19960;-73
2022/03/24 11:56:06;;;;;;;;;;;;;;;;;;5112103;28;20682;-74
2022/03/24 11:58:32;;;;;;;;;;;;;;;;;;5093241;28;19946;-74
2022/03/24 12:00:58;;;;;;;;;;;;;;;;;;5093690;28;20015;-73
2022/03/24 12:03:24;;;;;;;;;;;;;;;;;;5111261;28;20356;-74
2022/03/24 12:05:51;;;;;;;;;;;;;;;;;;5092370;28;19919;-74
2022/03/24 12:08:28;;;;;;;;;;;16.80;1.00;;;;;;5111076;28;19912;-74
2022/03/24 12:10:54;;;;;;;;;;;17.00;1.00;;;;;;5111893;28;20011;-74
2022/03/24 12:13:21;;;;;;;;;;;;;;;;;;5092892;28;19986;-75
2022/03/24 12:15:47;;;;;;;;;;;;;;;;;;5111828;28;19912;-73
2022/03/24 12:18:14;;;;;;;;;;;;;;;;;;5110977;28;19923;-74
2022/03/24 12:20:43;;;;;;;;;;;17.20;1.00;;;;;;5106942;28;19923;-75
2022/03/24 12:23:09;;;;;;;;;;;;;;;;;;5100139;28;19912;-75
2022/03/24 12:25:35;;;;;;;;;;;;;;;;;;5090407;28;19962;-75
2022/03/24 12:28:01;;;;;;;;;;;;;;;;;;5092084;28;19928;-75
2022/03/24 12:30:27;;;;;;;;;;;;;;;;;;5110337;28;19914;-74
2022/03/24 12:32:53;;;;;;;;;;;;;;;;;;5111088;28;20410;-75
2022/03/24 12:35:37;;;;;;;;;;;17.20;1.00;;;;;;5110521;28;19914;-74
2022/03/24 12:38:19;;;;;;;;;;;17.10;1.00;;;;;;5111094;28;20399;-74
2022/03/24 12:41:04;;;;;;;;;;;17.30;1.00;;;;;;5110734;28;19912;-74
2022/03/24 12:43:51;;;;;;;;;;;17.00;1.00;;;;;;5110367;28;19938;-74
2022/03/24 12:46:17;;;;;;;;;;;;;;;;;;5101473;28;19989;-74
2022/03/24 12:48:43;;;;;;;;;;;;;;;;;;5109817;28;19927;-73
2022/03/24 12:51:09;;;;;;;;;;;;;;;;;;5092712;28;20364;-73
2022/03/24 12:53:35;;;;;;;;;;;;;;;;;;5109419;28;19907;-74
2022/03/24 12:56:18;;;;;;;;;;;17.80;1.00;;;;;;5103734;28;20638;-74
2022/03/24 12:58:44;;;;;;;;;;;;;;;;;;5097596;28;19919;-74
2022/03/24 13:01:10;;;;;;;;;;;;;;;;;;5079406;28;20003;-74
2022/03/24 13:03:36;;;;;;;;;;;;;;;;;;5089714;28;20544;-73
2022/03/24 13:06:02;;;;;;;;;;;;;;;;;;5090124;28;19908;-64
2022/03/24 13:08:28;;;;;;;;;;;;;;;;;;5089336;28;20412;-64
2022/03/24 13:10:54;;;;;;;;;;;;;;;;;;5090292;28;20007;-64
2022/03/24 13:13:20;;;;;;;;;;;;;;;;;;5089457;28;19919;-66
2022/03/24 13:15:46;;;;;;;;;;;;;;;;;;5072040;28;20003;-64
2022/03/24 13:18:14;;;;;;;;;;;17.90;1.00;;;;;;5096063;28;20431;-65
2022/03/24 13:20:40;;;;;;;;;;;;;;;;;;5109936;28;19912;-75
2022/03/24 13:23:12;;;;;;;;;;;17.70;1.00;;;;;;5106964;28;19962;-75
2022/03/24 13:25:39;;;;;;;;;;;18.40;1.00;;;;;;5103555;28;20287;-75
2022/03/24 13:28:06;;;;;;;;;;;18.50;1.00;;;;;;5113462;28;19924;-75
2022/03/24 13:30:34;;;;;;;;;;;18.20;1.00;;;;;;5112904;28;19908;-75
2022/03/24 13:33:03;;;;;;;;;;;17.90;1.00;;;;;;5113810;28;20368;-75
2022/03/24 13:35:29;;;;;;;;;;;;;;;;;;5108156;28;19994;-74
2022/03/24 13:37:56;;;;;;;;;;;;;;;;;;5109783;28;20003;-75
2022/03/24 13:40:25;;;;;;;;;;;17.70;1.00;;;;;;5109030;28;19912;-75
2022/03/24 13:42:52;;;;;;;;;;;18.00;1.00;;;;;;5113497;28;19908;-74
2022/03/24 13:45:18;;;;;;;;;;;;;;;;;;5113075;28;19943;-75
2022/03/24 13:47:44;;;;;;;;;;;;;;;;;;5113114;28;20010;-74
2022/03/24 13:50:10;;;;;;;;;;;18.30;1.00;;;;;;5113362;28;19960;-74
2022/03/24 13:52:40;;;;;;;;;;;18.10;1.00;;;;;;5112895;28;19912;-75
2022/03/24 13:55:11;;;;;;;;;;;18.70;1.00;;;;;;5113785;28;19908;-75
2022/03/24 13:57:55;;;;;;;;;;;18.10;1.00;;;;;;5112850;28;19916;-75
2022/03/24 14:00:30;;;;;;;;;;;18.60;1.00;;;;;;5112552;28;19907;-75
2022/03/24 14:02:57;;;;;;;;;;;18.90;1.00;;;;;;5113231;28;19907;-75
2022/03/24 14:05:23;;;;;;;;;;;18.50;1.00;;;;;;5112505;28;20029;-74
2022/03/24 14:07:55;;;;;;;;;;;18.50;1.00;;;;;;5113389;28;20022;-74
2022/03/24 14:10:21;;;;;;;;;;;;;;;;;;5094475;28;19908;-74
2022/03/24 14:12:47;;;;;;;;;;;;;;;;;;5094863;28;19908;-74
2022/03/24 14:15:13;;;;;;;;;;;;;;;;;;5113172;28;19912;-74
2022/03/24 14:17:38;;;;;;;;;;;18.70;1.00;;;;;;5112190;28;19904;-75
2022/03/24 14:20:08;;;;;;;;;;;18.90;1.00;;;;;;5112948;28;19998;-75
2022/03/24 14:22:45;;;;;;;;;;;18.60;1.00;;;;;;5112138;28;19914;-75
2022/03/24 14:25:11;;;;;;;;;;;18.50;1.00;;;;;;5094563;28;19908;-74
2022/03/24 14:27:47;;;;;;;;;;;19.00;1.00;;;;;;5093579;28;19959;-75
2022/03/24 14:30:12;;;;;;;;;;;18.50;1.00;;;;;;5112919;28;19968;-75
2022/03/24 14:32:48;;;;;;;;;;;19.10;1.00;;;;;;5112047;28;19912;-74
2022/03/24 14:35:14;;;;;;;;;;;;;;;;;;5112738;28;19961;-75
2022/03/24 14:37:47;;;;;;;;;;;18.90;1.00;;;;;;5111889;28;20030;-75
2022/03/24 14:40:14;;;;;;;;;;;19.20;1.00;;;;;;5107985;28;20003;-75
2022/03/24 14:42:40;;;;;;;;;;;19.70;1.00;;;;;;5110438;28;19904;-75
2022/03/24 14:45:06;;;;;;;;;;;19.80;1.00;;;;;;5112672;28;19907;-76
2022/03/24 14:47:32;;;;;;;;;;;18.40;1.00;;;;;;5093451;28;19955;-75
2022/03/24 14:50:01;;;;;;;;;;;18.60;1.00;;;;;;5115882;28;19915;-75
2022/03/24 14:52:26;;;;;;;;;;;19.10;1.00;;;;;;5115915;28;19908;-75
2022/03/24 14:54:52;;;;;;;;;;;19.10;1.00;;;;;;5116760;28;19908;-75
2022/03/24 14:57:18;;;;;;;;;;;19.30;1.00;;;;;;5116589;28;20276;-75
2022/03/24 14:59:43;;;;;;;;;;;19.10;1.00;;;;;;5115845;28;20371;-75
2022/03/24 15:02:09;;;;;;;;;;;19.80;1.00;;;;;;5098331;28;20257;-74
2022/03/24 15:04:34;;;;;;;;;;;20.60;1.00;;;;;;5097473;28;19908;-75
2022/03/24 15:07:00;;;;;;;;;;;20.30;1.00;;;;;;5098168;28;20408;-75
2022/03/24 15:09:26;;;;;;;;;;;;;;;;;;5097290;28;20377;-75
2022/03/24 15:11:52;;;;;;;;;;;19.80;1.00;;;;;;5116330;28;20267;-75
2022/03/24 15:17:01;;;;;;;;;;;19.60;1.00;;;;;;5116727;28;20374;-75
2022/03/24 15:19:27;;;;;;;;;;;20.30;1.00;;;;;;5115459;28;19908;-75
2022/03/24 15:21:52;;;;;;;;;;;19.30;1.00;;;;;;5116217;28;20413;-75
2022/03/24 15:24:19;;;;;;;;;;;;;;;;;;5116120;28;19907;-75
2022/03/24 15:26:44;;;;;;;;;;;;;;;;;;5115010;28;19926;-75
2022/03/24 15:29:10;;;;;;;;;;;19.70;1.00;;;;;;5097747;28;19908;-75
2022/03/24 15:31:36;;;;;;;;;;;20.50;1.00;;;;;;5096922;28;19915;-75
2022/03/24 15:34:04;;;;;;;;;;;19.50;1.00;;;;;;5097643;28;19908;-75
2022/03/24 15:36:29;;;;;;;;;;;19.10;1.00;;;;;;5115164;28;19915;-74
2022/03/24 15:38:55;;;;;;;;;;;19.50;1.00;;;;;;5115768;28;19953;-76
2022/03/24 15:41:21;;;;;;;;;;;19.90;1.00;;;;;;5115795;28;20390;-75
2022/03/24 15:43:46;;;;;;;;;;;19.90;1.00;;;;;;5115001;28;19908;-75
2022/03/24 15:46:14;;;;;;;;;;;19.50;1.00;;;;;;5115717;28;19908;-75
2022/03/24 15:48:41;;;;;;;;;;;19.40;1.00;;;;;;5096502;28;20260;-75
2022/03/24 15:51:07;;;;;;;;;;;19.50;1.00;;;;;;5115682;28;19931;-74
2022/03/24 15:53:33;;;;;;;;;;;20.80;1.00;;;;;;5096447;28;20356;-75
2022/03/24 15:55:59;;;;;;;;;;;21.10;1.00;;;;;;5115552;28;19908;-75
2022/03/24 15:58:25;;;;;;;;;;;;;;;;;;5114999;28;19920;-74
2022/03/24 16:00:51;;;;;;;;;;;19.30;1.00;;;;;;5114641;28;19922;-74
2022/03/24 16:03:17;;;;;;;;;;;;;;;;;;5115420;28;19947;-75
2022/03/24 16:05:43;;;;;;;;;;;19.40;1.00;;;;;;5114530;28;20748;-75
2022/03/24 16:08:09;;;;;;;;;;;19.20;1.00;;;;;;5115258;28;20010;-74
2022/03/24 16:10:36;;;;;;;;;;;19.60;1.00;;;;;;5114591;28;19915;-75
2022/03/24 16:13:01;;;;;;;;;;;20.30;1.00;;;;;;5115238;28;19957;-75
2022/03/24 16:15:27;;;;;;;;;;;;;;;;;;5114664;28;19912;-75
2022/03/24 16:17:53;;;;;;;;;;;19.60;1.00;;;;;;5096764;28;19912;-75
2022/03/24 16:20:19;;;;;;;;;;;19.50;1.00;;;;;;5115101;28;20352;-75
2022/03/24 16:22:45;;;;;;;;;;;19.30;1.00;;;;;;5095986;28;20715;-75
2022/03/24 16:25:11;;;;;;;;;;;19.80;1.00;;;;;;5114960;28;20351;-75
2022/03/24 16:27:37;;;;;;;;;;;19.40;1.00;;;;;;5113845;28;19930;-75
2022/03/24 16:30:03;;;;;;;;;;;19.10;1.00;;;;;;5114941;28;20006;-75
2022/03/24 16:32:28;;;;;;;;;;;;;;;;;;5114172;28;19915;-75
2022/03/24 16:34:54;;;;;;;;;;;19.90;1.00;;;;;;5096440;28;19908;-75
2022/03/24 16:37:19;;;;;;;;;;;19.90;1.00;;;;;;5114857;28;20306;-75
2022/03/24 16:39:45;;;;;;;;;;;19.90;1.00;;;;;;5113779;28;19964;-75
2022/03/24 16:42:11;;;;;;;;;;;19.30;1.00;;;;;;5096336;28;20378;-74
2022/03/24 16:44:39;;;;;;;;;;;19.30;1.00;;;;;;5113797;28;19908;-75
2022/03/24 16:47:07;;;;;;;;;;;19.60;1.00;;;;;;5114473;28;19957;-75
2022/03/24 16:49:32;;;;;;;;;;;19.20;1.00;;;;;;5113709;28;19908;-74
2022/03/24 16:51:58;;;;;;;;;;;19.30;1.00;;;;;;5114492;28;19914;-76
2022/03/24 16:54:23;;;;;;;;;;;19.90;1.00;;;;;;5114409;28;19908;-81
2022/03/24 16:56:49;;;;;;;;;;;19.60;1.00;;;;;;5113516;28;19919;-72
2022/03/24 16:59:16;;;;;;;;;;;19.20;1.00;;;;;;5114429;28;20291;-72
2022/03/24 17:01:42;;;;;;;;;;;18.90;1.00;;;;;;5113338;28;19969;-72
2022/03/24 17:04:08;;;;;;;;;;;18.80;1.00;;;;;;5114066;28;19908;-73
2022/03/24 17:06:35;;;;;;;;;;;18.70;1.00;;;;;;5113351;28;20271;-73
2022/03/24 17:09:01;;;;;;;;;;;18.60;1.00;;;;;;5095829;28;19912;-72
2022/03/24 17:11:27;;;;;;;;;;;18.40;1.00;;;;;;5113273;28;19908;-73
2022/03/24 17:13:53;;;;;;;;;;;18.00;1.00;;;;;;5107242;27;19920;-72
2022/03/24 17:16:18;;;;;;;;;;;17.90;1.00;;;;;;5093648;28;20387;-71
2022/03/24 17:18:44;;;;;;;;;;;17.80;1.00;;;;;;5099559;28;19912;-72
2022/03/24 17:21:10;;;;;;;;;;;;;;;;;;5098675;28;19912;-72
2022/03/24 17:23:36;;;;;;;;;;;17.60;1.00;;;;;;5105328;28;19912;-72
2022/03/24 17:26:01;;;;;;;;;;;17.50;1.00;;;;;;5113263;28;19918;-71
2022/03/24 17:28:27;;;;;;;;;;;17.20;1.00;;;;;;5090625;28;20010;-72
2022/03/24 17:30:52;;;;;;;;;;;17.10;1.00;;;;;;5092548;28;19912;-71
2022/03/24 17:33:18;;;;;;;;;;;17.10;1.00;;;;;;5093347;28;19912;-72
2022/03/24 17:35:43;;;;;;;;;;;16.90;1.00;;;;;;5092460;28;20360;-72
2022/03/24 17:38:09;;;;;;;;;;;16.60;1.00;;;;;;5093411;28;19908;-71
2022/03/24 17:40:35;;;;;;;;;;;16.30;1.00;;;;;;5092409;28;19908;-72
2022/03/24 17:43:00;;;;;;;;;;;16.20;1.00;;;;;;5084635;28;19912;-72
2022/03/24 17:45:27;;;;;;;;;;;;;;;;;;5091065;28;19915;-72
2022/03/24 17:47:53;;;;;;;;;;;15.90;1.00;;;;;;5090742;28;20106;-73
2022/03/24 17:50:19;;;;;;;;;;;15.80;1.00;;;;;;5093673;28;19912;-72
2022/03/24 17:52:46;;;;;;;;;;;15.90;1.00;;;;;;5092249;28;19908;-72
2022/03/24 17:55:12;;;;;;;;;;;15.70;1.00;;;;;;5091675;28;20002;-72
2022/03/24 17:57:39;;;;;;;;;;;15.40;1.00;;;;;;5092419;28;19922;-72